createdAt,value
2019-01-25T00:01:12.294Z,48.85
2019-01-25T00:03:40.475Z,53.13
2019-01-25T00:06:08.670Z,58.42
2019-01-25T00:08:37.156Z,68.70
2019-01-25T00:11:07.320Z,61.83
2019-01-25T00:13:35.045Z,59.05
2019-01-25T00:16:03.649Z,55.35
2019-01-25T00:18:31.792Z,61.02
2019-01-25T00:21:01.005Z,57.88
2019-01-25T00:23:28.663Z,54.33
2019-01-25T00:25:57.110Z,55.25
2019-01-25T00:28:25.218Z,64.07
2019-01-25T00:30:55.106Z,53.75
2019-01-25T00:33:23.225Z,58.10
2019-01-25T00:35:51.365Z,51.58
2019-01-25T00:38:19.721Z,62.15
2019-01-25T00:40:48.167Z,63.63
2019-01-25T00:43:17.115Z,60.90
2019-01-25T00:45:44.777Z,66.97
2019-01-25T00:48:12.845Z,68.70
2019-01-25T00:50:40.725Z,61.00
2019-01-25T00:53:12.939Z,62.88
2019-01-25T00:55:41.467Z,60.83
2019-01-25T00:58:10.044Z,68.57
2019-01-25T01:00:37.805Z,67.35
2019-01-25T01:03:07.512Z,68.55
2019-01-25T01:05:35.187Z,65.30
2019-01-25T01:08:03.868Z,69.53
2019-01-25T01:10:31.935Z,72.47
2019-01-25T01:12:59.718Z,68.62
2019-01-25T01:15:27.776Z,70.20
2019-01-25T01:17:56.391Z,84.37
2019-01-25T01:20:25.691Z,68.20
2019-01-25T01:22:53.375Z,64.37
2019-01-25T01:25:22.198Z,64.03
2019-01-25T01:27:50.297Z,72.20
2019-01-25T01:30:21.768Z,72.30
2019-01-25T01:32:50.356Z,72.82
2019-01-25T01:35:18.701Z,73.00
2019-01-25T01:37:47.859Z,64.42
2019-01-25T01:40:22.140Z,73.67
2019-01-25T01:42:48.369Z,74.80
2019-01-25T01:45:17.033Z,73.40
2019-01-25T01:47:45.852Z,66.70
2019-01-25T01:50:14.561Z,60.03
2019-01-25T01:52:42.722Z,60.08
2019-01-25T01:55:10.450Z,65.50
2019-01-25T01:57:38.427Z,67.92
2019-01-25T02:00:09.803Z,62.00
2019-01-25T02:02:37.477Z,67.80
2019-01-25T02:05:06.841Z,59.30
2019-01-25T02:07:34.605Z,73.30
2019-01-25T02:10:03.289Z,63.95
2019-01-25T02:12:31.997Z,66.17
2019-01-25T02:15:00.043Z,78.87
2019-01-25T02:17:28.888Z,63.42
2019-01-25T02:19:56.909Z,65.65
2019-01-25T02:22:24.684Z,75.52
2019-01-25T02:24:52.919Z,58.60
2019-01-25T02:27:21.323Z,66.90
2019-01-25T02:29:49.410Z,73.10
2019-01-25T02:32:17.797Z,73.20
2019-01-25T02:34:46.169Z,64.77
2019-01-25T02:37:14.654Z,68.83
2019-01-25T02:39:42.988Z,65.28
2019-01-25T02:42:11.908Z,60.88
2019-01-25T02:44:40.086Z,68.65
2019-01-25T02:47:08.791Z,74.42
2019-01-25T02:49:36.394Z,66.25
2019-01-25T02:52:05.309Z,69.32
2019-01-25T02:54:33.288Z,65.80
2019-01-25T02:57:01.371Z,74.55
2019-01-25T02:59:28.669Z,74.17
2019-01-25T03:01:57.188Z,65.80
2019-01-25T03:04:25.901Z,68.22
2019-01-25T03:06:53.962Z,68.15
2019-01-25T03:09:21.707Z,67.25
2019-01-25T03:11:49.480Z,61.95
2019-01-25T03:14:17.160Z,67.27
2019-01-25T03:16:45.112Z,64.53
2019-01-25T03:19:13.189Z,67.53
2019-01-25T03:21:41.395Z,75.95
2019-01-25T03:24:09.545Z,70.83
2019-01-25T03:26:37.907Z,75.83
2019-01-25T03:29:05.187Z,72.97
2019-01-25T03:31:33.748Z,77.72
2019-01-25T03:34:02.327Z,75.08
2019-01-25T03:36:29.705Z,66.72
2019-01-25T03:38:57.652Z,66.70
2019-01-25T03:41:25.728Z,79.65
2019-01-25T03:43:53.817Z,72.53
2019-01-25T03:46:22.399Z,77.58
2019-01-25T03:48:50.466Z,66.57
2019-01-25T03:51:18.919Z,70.90
2019-01-25T03:53:47.092Z,73.12
2019-01-25T03:56:14.689Z,85.30
2019-01-25T03:58:43.153Z,67.25
2019-01-25T04:01:10.759Z,62.70
2019-01-25T04:03:39.221Z,74.97
2019-01-25T04:06:07.398Z,69.92
2019-01-25T04:08:34.745Z,72.30
2019-01-25T04:11:03.984Z,71.12
2019-01-25T04:13:32.308Z,62.50
2019-01-25T04:16:00.576Z,68.37
2019-01-25T04:18:29.189Z,68.50
2019-01-25T04:20:57.977Z,87.82
2019-01-25T04:23:26.387Z,82.78
2019-01-25T04:25:54.468Z,72.95
2019-01-25T04:28:22.291Z,66.72
2019-01-25T04:30:49.611Z,72.72
2019-01-25T04:33:18.413Z,71.17
2019-01-25T04:35:45.712Z,67.82
2019-01-25T04:38:13.809Z,84.55
2019-01-25T04:40:42.578Z,75.97
2019-01-25T04:43:10.643Z,71.42
2019-01-25T04:45:39.027Z,70.75
2019-01-25T04:48:12.592Z,71.42
2019-01-25T04:50:40.872Z,81.10
2019-01-25T04:53:08.543Z,74.55
2019-01-25T04:55:37.226Z,83.15
2019-01-25T04:58:20.898Z,86.25
2019-01-25T05:00:49.036Z,83.67
2019-01-25T05:03:17.121Z,76.25
2019-01-25T05:05:45.512Z,70.85
2019-01-25T05:08:18.165Z,68.65
2019-01-25T05:10:46.237Z,78.72
2019-01-25T05:13:13.980Z,76.90
2019-01-25T05:15:42.411Z,74.40
2019-01-25T05:18:10.580Z,72.47
2019-01-25T05:20:38.661Z,69.05
2019-01-25T05:23:08.093Z,73.87
2019-01-25T05:25:36.511Z,69.12
2019-01-25T05:28:14.311Z,75.95
2019-01-25T05:30:54.497Z,71.72
2019-01-25T05:33:22.537Z,67.97
2019-01-25T05:35:50.622Z,75.67
2019-01-25T05:38:18.692Z,81.57
2019-01-25T05:40:46.769Z,69.10
2019-01-25T05:43:14.630Z,74.65
2019-01-25T05:45:45.260Z,80.53
2019-01-25T05:48:13.104Z,85.92
2019-01-25T05:50:40.914Z,77.60
2019-01-25T05:53:09.431Z,74.12
2019-01-25T05:55:37.281Z,87.15
2019-01-25T05:58:06.668Z,67.37
2019-01-25T06:00:37.350Z,87.60
2019-01-25T06:03:07.415Z,80.65
2019-01-25T06:05:35.903Z,78.55
2019-01-25T06:08:32.579Z,78.20
2019-01-25T06:11:05.213Z,76.45
2019-01-25T06:13:33.579Z,74.45
2019-01-25T06:16:01.556Z,93.00
2019-01-25T06:18:30.136Z,91.35
2019-01-25T06:20:58.722Z,86.40
2019-01-25T06:23:26.403Z,70.55
2019-01-25T06:25:55.818Z,80.38
2019-01-25T06:28:24.749Z,74.10
2019-01-25T06:30:53.292Z,91.10
2019-01-25T06:33:21.632Z,78.22
2019-01-25T06:35:49.627Z,85.32
2019-01-25T06:38:17.695Z,94.83
2019-01-25T06:40:46.569Z,88.62
2019-01-25T06:43:14.825Z,78.62
2019-01-25T06:45:42.145Z,91.30
2019-01-25T06:48:12.061Z,88.47
2019-01-25T06:50:40.418Z,75.20
2019-01-25T06:53:08.878Z,91.05
2019-01-25T06:55:37.267Z,87.92
2019-01-25T06:58:22.354Z,90.07
2019-01-25T07:01:12.751Z,82.85
2019-01-25T07:03:40.413Z,83.17
2019-01-25T07:06:11.737Z,77.45
2019-01-25T07:08:40.145Z,79.25
2019-01-25T07:11:07.920Z,79.85
2019-01-25T07:13:35.985Z,95.20
2019-01-25T07:16:03.920Z,83.03
2019-01-25T07:18:32.224Z,94.22
2019-01-25T07:21:00.924Z,79.15
2019-01-25T07:23:29.087Z,86.30
2019-01-25T07:25:57.758Z,92.85
2019-01-25T07:28:25.745Z,103.75
2019-01-25T07:30:53.806Z,84.72
2019-01-25T07:33:22.069Z,91.37
2019-01-25T07:35:51.103Z,93.72
2019-01-25T07:38:19.239Z,88.47
2019-01-25T07:40:48.039Z,93.05
2019-01-25T07:43:18.168Z,92.22
2019-01-25T07:45:46.692Z,92.65
2019-01-25T07:48:15.705Z,85.03
2019-01-25T07:50:44.206Z,97.00
2019-01-25T07:53:13.323Z,81.50
2019-01-25T07:55:40.627Z,90.90
2019-01-25T07:58:08.805Z,83.40
2019-01-25T08:00:36.938Z,87.00
2019-01-25T08:03:04.833Z,83.33
2019-01-25T08:05:32.565Z,96.70
2019-01-25T08:08:00.221Z,83.62
2019-01-25T08:10:27.924Z,98.17
2019-01-25T08:12:56.360Z,93.15
2019-01-25T08:15:25.116Z,101.65
2019-01-25T08:17:53.624Z,92.00
2019-01-25T08:20:21.656Z,97.02
2019-01-25T08:22:50.602Z,92.60
2019-01-25T08:25:18.797Z,81.63
2019-01-25T08:27:46.949Z,103.17
2019-01-25T08:30:15.550Z,103.05
2019-01-25T08:32:44.745Z,95.45
2019-01-25T08:35:17.119Z,94.03
2019-01-25T08:38:16.225Z,96.50
2019-01-25T08:40:43.901Z,88.67
2019-01-25T08:43:12.530Z,94.07
2019-01-25T08:45:40.935Z,83.82
2019-01-25T08:48:09.088Z,105.70
2019-01-25T08:50:36.885Z,96.37
2019-01-25T08:53:05.368Z,93.03
2019-01-25T08:55:33.791Z,105.83
2019-01-25T08:58:04.130Z,102.62
2019-01-25T09:00:32.871Z,93.65
2019-01-25T09:03:01.719Z,94.50
2019-01-25T09:05:29.602Z,85.67
2019-01-25T09:07:57.694Z,98.97
2019-01-25T09:10:26.368Z,97.08
2019-01-25T09:12:53.611Z,99.95
2019-01-25T09:15:23.718Z,106.35
2019-01-25T09:17:51.843Z,110.83
2019-01-25T09:20:20.291Z,102.42
2019-01-25T09:22:48.585Z,104.38
2019-01-25T09:25:16.732Z,106.85
2019-01-25T09:27:45.119Z,109.32
2019-01-25T09:30:15.333Z,100.38
2019-01-25T09:32:43.845Z,93.50
2019-01-25T09:35:12.508Z,106.55
2019-01-25T09:37:40.186Z,91.05
2019-01-25T09:40:10.339Z,104.03
2019-01-25T09:42:37.680Z,105.70
2019-01-25T09:45:06.328Z,105.78
2019-01-25T09:47:34.532Z,99.62
2019-01-25T09:50:03.949Z,100.18
2019-01-25T09:52:32.283Z,107.50
2019-01-25T09:55:00.436Z,111.20
2019-01-25T09:57:31.631Z,103.02
2019-01-25T09:59:59.359Z,94.15
2019-01-25T10:02:28.231Z,100.15
2019-01-25T10:04:55.914Z,102.20
2019-01-25T10:07:24.841Z,102.70
2019-01-25T10:09:52.156Z,93.22
2019-01-25T10:12:20.465Z,106.00
2019-01-25T10:14:48.715Z,106.45
2019-01-25T10:17:16.795Z,104.97
2019-01-25T10:19:44.459Z,106.87
2019-01-25T10:22:12.835Z,98.15
2019-01-25T10:24:40.970Z,93.33
2019-01-25T10:27:10.203Z,111.90
2019-01-25T10:29:38.815Z,115.75
2019-01-25T10:32:06.952Z,99.25
2019-01-25T10:34:34.957Z,99.52
2019-01-25T10:37:02.707Z,106.60
2019-01-25T10:39:31.085Z,101.40
2019-01-25T10:41:58.421Z,121.97
2019-01-25T10:44:26.023Z,99.30
2019-01-25T10:46:54.177Z,109.42
2019-01-25T10:49:21.970Z,102.12
2019-01-25T10:51:50.087Z,112.12
2019-01-25T10:54:19.030Z,111.08
2019-01-25T10:56:46.775Z,102.15
2019-01-25T10:59:16.043Z,125.33
2019-01-25T11:01:44.563Z,100.62
2019-01-25T11:04:12.979Z,103.05
2019-01-25T11:06:41.939Z,111.15
2019-01-25T11:09:09.468Z,113.17
2019-01-25T11:11:37.864Z,105.58
2019-01-25T11:14:07.070Z,109.05
2019-01-25T11:16:34.737Z,111.47
2019-01-25T11:19:02.916Z,109.25
2019-01-25T11:21:31.785Z,112.05
2019-01-25T11:24:00.028Z,112.83
2019-01-25T11:26:28.826Z,106.87
2019-01-25T11:28:57.033Z,111.47
2019-01-25T11:31:25.226Z,108.37
2019-01-25T11:33:53.592Z,110.37
2019-01-25T11:36:22.010Z,113.40
2019-01-25T11:38:50.611Z,121.72
2019-01-25T11:41:19.276Z,114.08
2019-01-25T11:43:49.028Z,130.43
2019-01-25T11:46:16.703Z,125.92
2019-01-25T11:48:44.816Z,107.25
2019-01-25T11:51:13.183Z,110.40
2019-01-25T11:53:41.279Z,120.22
2019-01-25T11:56:09.705Z,116.42
2019-01-25T11:58:37.462Z,115.65
2019-01-25T12:01:06.022Z,106.63
2019-01-25T12:03:34.178Z,115.40
2019-01-25T12:06:02.303Z,103.15
2019-01-25T12:08:30.472Z,111.17
2019-01-25T12:10:59.044Z,100.95
2019-01-25T12:13:26.620Z,100.40
2019-01-25T12:15:55.004Z,117.53
2019-01-25T12:18:23.273Z,99.37
2019-01-25T12:20:51.432Z,112.08
2019-01-25T12:23:19.554Z,107.95
2019-01-25T12:25:48.716Z,103.25
2019-01-25T12:28:16.827Z,90.65
2019-01-25T12:30:45.497Z,100.20
2019-01-25T12:33:14.049Z,97.85
2019-01-25T12:35:43.647Z,97.42
2019-01-25T12:38:12.373Z,102.25
2019-01-25T12:40:42.306Z,103.07
2019-01-25T12:43:11.115Z,98.87
2019-01-25T12:45:39.751Z,96.17
2019-01-25T12:48:07.545Z,94.43
2019-01-25T12:50:48.993Z,103.57
2019-01-25T12:53:15.362Z,102.53
2019-01-25T12:55:45.684Z,100.77
2019-01-25T12:58:14.353Z,106.77
2019-01-25T13:00:42.464Z,103.47
2019-01-25T13:03:11.631Z,101.77
2019-01-25T13:05:43.383Z,100.37
2019-01-25T13:08:11.285Z,105.50
2019-01-25T13:10:39.769Z,98.90
2019-01-25T13:13:07.910Z,105.83
2019-01-25T13:15:36.043Z,98.87
2019-01-25T13:18:06.131Z,88.27
2019-01-25T13:20:39.584Z,91.80
2019-01-25T13:23:12.037Z,98.77
2019-01-25T13:25:47.293Z,97.45
2019-01-25T13:28:15.211Z,99.17
2019-01-25T13:30:45.469Z,94.90
2019-01-25T13:33:15.122Z,96.78
2019-01-25T13:35:43.203Z,92.62
2019-01-25T13:38:11.724Z,112.08
2019-01-25T13:40:39.859Z,106.03
2019-01-25T13:43:07.748Z,85.22
2019-01-25T13:45:37.160Z,92.80
2019-01-25T13:48:05.361Z,102.27
2019-01-25T13:50:33.914Z,97.02
2019-01-25T13:53:03.431Z,90.87
2019-01-25T13:55:32.831Z,92.72
2019-01-25T13:58:01.247Z,109.40
2019-01-25T14:00:32.401Z,113.10
2019-01-25T14:03:00.319Z,105.70
2019-01-25T14:05:28.568Z,94.28
2019-01-25T14:07:56.800Z,108.95
2019-01-25T14:10:29.924Z,115.37
2019-01-25T14:12:58.739Z,107.60
2019-01-25T14:15:27.796Z,104.83
2019-01-25T14:17:57.158Z,112.68
2019-01-25T14:20:26.387Z,93.20
2019-01-25T14:22:55.001Z,97.37
2019-01-25T14:25:23.417Z,90.75
2019-01-25T14:27:52.007Z,96.40
2019-01-25T14:30:21.898Z,119.97
2019-01-25T14:32:50.595Z,100.65
2019-01-25T14:35:20.095Z,101.50
2019-01-25T14:37:50.509Z,102.35
2019-01-25T14:40:21.043Z,119.20
2019-01-25T14:42:49.348Z,98.42
2019-01-25T14:45:17.929Z,97.12
2019-01-25T14:47:45.403Z,107.35
2019-01-25T14:50:15.560Z,101.73
2019-01-25T14:52:43.488Z,98.90
2019-01-25T14:55:11.855Z,105.40
2019-01-25T14:57:40.017Z,103.10
2019-01-25T15:00:09.375Z,98.17
2019-01-25T15:02:37.586Z,92.15
2019-01-25T15:05:09.324Z,96.15
2019-01-25T15:07:37.895Z,107.43
2019-01-25T15:10:11.239Z,93.20
2019-01-25T15:12:39.906Z,95.05
2019-01-25T15:15:10.422Z,92.62
2019-01-25T15:17:38.678Z,91.57
2019-01-25T15:20:08.724Z,91.95
2019-01-25T15:22:37.180Z,88.00
2019-01-25T15:25:06.371Z,83.50
2019-01-25T15:27:33.878Z,84.92
2019-01-25T15:30:02.041Z,81.87
2019-01-25T15:32:30.710Z,76.92
2019-01-25T15:34:58.702Z,88.05
2019-01-25T15:37:28.074Z,81.35
2019-01-25T15:39:57.159Z,81.87
2019-01-25T15:42:25.671Z,88.97
2019-01-25T15:44:54.559Z,75.60
2019-01-25T15:47:23.152Z,68.50
2019-01-25T15:49:51.299Z,74.53
2019-01-25T15:52:19.891Z,77.20
2019-01-25T15:54:49.539Z,66.20
2019-01-25T15:57:17.790Z,60.45
2019-01-25T15:59:45.845Z,73.10
2019-01-25T16:02:14.624Z,74.80
2019-01-25T16:04:44.209Z,68.83
2019-01-25T16:07:12.425Z,55.80
2019-01-25T16:09:43.189Z,60.78
2019-01-25T16:12:13.601Z,62.98
2019-01-25T16:14:41.893Z,53.58
2019-01-25T16:17:10.674Z,60.95
2019-01-25T16:19:39.262Z,64.20
2019-01-25T16:22:07.733Z,62.30
2019-01-25T16:24:36.511Z,68.22
2019-01-25T16:27:05.670Z,58.05
2019-01-25T16:29:34.111Z,54.10
2019-01-25T16:32:02.239Z,70.42
2019-01-25T16:34:30.349Z,64.82
2019-01-25T16:37:00.170Z,59.85
2019-01-25T16:39:29.007Z,49.93
2019-01-25T16:41:59.398Z,49.53
2019-01-25T16:44:30.233Z,53.08
2019-01-25T16:46:58.936Z,52.38
2019-01-25T16:49:27.931Z,50.00
2019-01-25T16:51:57.728Z,42.13
2019-01-25T16:54:27.301Z,44.00
2019-01-25T16:56:55.880Z,37.75
2019-01-25T16:59:26.239Z,36.05
2019-01-25T17:01:55.304Z,42.25
2019-01-25T17:04:23.888Z,36.25
2019-01-25T17:06:51.674Z,34.25
2019-01-25T17:09:22.457Z,42.10
2019-01-25T17:11:51.130Z,28.45
2019-01-25T17:14:18.572Z,38.38
2019-01-25T17:16:48.514Z,39.70
2019-01-25T17:19:17.353Z,34.08
2019-01-25T17:21:45.710Z,38.80
2019-01-25T17:24:13.455Z,39.67
2019-01-25T17:26:44.044Z,47.48
2019-01-25T17:29:12.105Z,46.90
2019-01-25T17:31:40.083Z,42.00
2019-01-25T17:34:09.179Z,35.78
2019-01-25T17:36:37.238Z,43.20
2019-01-25T17:39:14.912Z,40.20
2019-01-25T17:41:42.911Z,41.95
2019-01-25T17:44:14.119Z,39.73
2019-01-25T17:46:44.735Z,42.93
2019-01-25T17:49:14.791Z,50.50
2019-01-25T17:51:46.338Z,47.27
2019-01-25T17:54:16.879Z,48.68
2019-01-25T17:56:45.284Z,44.83
2019-01-25T17:59:13.668Z,45.05
2019-01-25T18:01:41.987Z,40.52
2019-01-25T18:04:10.846Z,40.92
2019-01-25T18:06:39.918Z,46.60
2019-01-25T18:09:11.912Z,47.98
2019-01-25T18:11:40.281Z,46.33
2019-01-25T18:14:09.376Z,46.83
2019-01-25T18:16:37.287Z,47.75
2019-01-25T18:19:05.716Z,40.58
2019-01-25T18:21:33.757Z,48.73
2019-01-25T18:24:02.759Z,49.13
2019-01-25T18:26:30.767Z,48.78
2019-01-25T18:29:14.470Z,46.50
2019-01-25T18:31:42.691Z,43.70
2019-01-25T18:34:11.127Z,51.25
2019-01-25T18:36:39.189Z,45.98
2019-01-25T18:39:08.398Z,43.42
2019-01-25T18:41:36.481Z,43.15
2019-01-25T18:44:06.852Z,44.50
2019-01-25T18:46:35.490Z,36.88
2019-01-25T18:49:05.222Z,41.58
2019-01-25T18:51:33.354Z,49.90
2019-01-25T18:54:02.365Z,46.25
2019-01-25T18:56:30.655Z,48.25
2019-01-25T18:59:01.315Z,44.27
2019-01-25T19:01:31.809Z,51.58
2019-01-25T19:03:59.655Z,52.48
2019-01-25T19:06:29.153Z,52.48
2019-01-25T19:08:57.847Z,58.35
2019-01-25T19:11:27.145Z,61.05
2019-01-25T19:14:00.992Z,50.83
2019-01-25T19:16:31.938Z,67.72
2019-01-25T19:19:00.060Z,57.43
2019-01-25T19:21:29.556Z,62.55
2019-01-25T19:23:58.481Z,56.55
2019-01-25T19:26:27.698Z,53.70
2019-01-25T19:28:55.780Z,59.77
2019-01-25T19:31:25.986Z,66.50
2019-01-25T19:33:53.724Z,60.67
2019-01-25T19:36:23.044Z,63.30
2019-01-25T19:38:56.639Z,57.27
2019-01-25T19:41:24.801Z,51.83
2019-01-25T19:43:53.580Z,51.73
2019-01-25T19:46:31.102Z,56.90
2019-01-25T19:48:59.842Z,58.58
2019-01-25T19:51:28.069Z,55.75
2019-01-25T19:54:05.453Z,62.85
2019-01-25T19:56:35.522Z,61.33
2019-01-25T19:59:07.098Z,61.13
2019-01-25T20:01:36.147Z,66.75
2019-01-25T20:04:08.097Z,69.00
2019-01-25T20:06:40.241Z,75.03
2019-01-25T20:09:10.219Z,69.05
2019-01-25T20:11:38.866Z,62.75
2019-01-25T20:14:07.646Z,63.70
2019-01-25T20:16:40.076Z,55.95
2019-01-25T20:19:16.651Z,61.30
2019-01-25T20:21:46.193Z,68.12
2019-01-25T20:24:16.531Z,56.60
2019-01-25T20:26:54.411Z,62.03
2019-01-25T20:29:29.304Z,62.95
2019-01-25T20:32:01.429Z,74.50
2019-01-25T20:34:29.742Z,68.87
2019-01-25T20:36:57.923Z,57.30
2019-01-25T20:39:36.663Z,67.37
2019-01-25T20:42:06.000Z,63.73
2019-01-25T20:44:37.084Z,68.97
2019-01-25T20:47:05.315Z,66.62
2019-01-25T20:49:37.419Z,56.70
2019-01-25T20:52:06.338Z,71.77
2019-01-25T20:54:34.578Z,62.98
2019-01-25T20:57:02.066Z,70.12
2019-01-25T20:59:30.149Z,70.62
2019-01-25T21:01:58.829Z,71.72
2019-01-25T21:04:27.931Z,62.30
2019-01-25T21:06:57.906Z,60.83
2019-01-25T21:09:26.702Z,53.33
2019-01-25T21:11:56.526Z,61.08
2019-01-25T21:14:26.779Z,55.05
2019-01-25T21:16:55.320Z,83.47
2019-01-25T21:19:24.547Z,54.48
2019-01-25T21:21:53.327Z,59.33
2019-01-25T21:24:21.512Z,53.98
2019-01-25T21:26:49.569Z,61.18
2019-01-25T21:29:17.727Z,59.30
2019-01-25T21:31:45.858Z,69.30
2019-01-25T21:34:14.578Z,59.20
2019-01-25T21:36:42.864Z,68.92
2019-01-25T21:39:12.070Z,58.65
2019-01-25T21:41:42.309Z,59.18
2019-01-25T21:44:10.365Z,64.22
2019-01-25T21:46:40.310Z,73.12
2019-01-25T21:49:08.232Z,70.50
2019-01-25T21:51:36.373Z,63.30
2019-01-25T21:54:04.479Z,56.60
2019-01-25T21:56:32.558Z,61.08
2019-01-25T21:59:00.317Z,64.20
2019-01-25T22:01:28.103Z,61.05
2019-01-25T22:03:55.930Z,49.55
2019-01-25T22:06:24.982Z,66.97
2019-01-25T22:08:53.737Z,56.28
2019-01-25T22:11:22.527Z,61.65
2019-01-25T22:13:52.965Z,58.80
2019-01-25T22:16:20.423Z,56.63
2019-01-25T22:18:49.155Z,57.80
2019-01-25T22:21:17.628Z,56.02
2019-01-25T22:23:45.796Z,66.15
2019-01-25T22:26:14.455Z,59.50
2019-01-25T22:28:42.497Z,54.67
2019-01-25T22:31:10.264Z,44.55
2019-01-25T22:33:38.331Z,53.90
2019-01-25T22:36:06.010Z,51.95
2019-01-25T22:38:34.318Z,66.12
2019-01-25T22:41:02.592Z,57.03
2019-01-25T22:43:33.923Z,50.23
2019-01-25T22:46:02.114Z,55.85
2019-01-25T22:48:29.937Z,54.80
2019-01-25T22:51:00.679Z,53.75
2019-01-25T22:53:28.541Z,43.45
2019-01-25T22:55:57.913Z,50.78
2019-01-25T22:58:26.661Z,45.63
2019-01-25T23:01:22.262Z,53.25
2019-01-25T23:04:40.645Z,46.45
2019-01-25T23:07:16.571Z,44.10
2019-01-25T23:09:56.464Z,45.50
2019-01-25T23:12:24.687Z,54.50
2019-01-25T23:14:53.211Z,57.58
2019-01-25T23:17:21.376Z,43.08
2019-01-25T23:19:49.420Z,50.85
2019-01-25T23:22:18.327Z,45.33
2019-01-25T23:24:48.941Z,57.23
2019-01-25T23:27:17.769Z,46.73
2019-01-25T23:29:45.803Z,49.60
2019-01-25T23:32:14.031Z,53.70
2019-01-25T23:34:43.151Z,52.40
2019-01-25T23:37:11.383Z,48.00
2019-01-25T23:39:39.436Z,47.53
2019-01-25T23:42:07.082Z,55.00
2019-01-25T23:44:35.206Z,43.90
2019-01-25T23:47:04.818Z,42.62
2019-01-25T23:49:32.928Z,40.28
2019-01-25T23:52:01.350Z,41.05
2019-01-25T23:54:30.433Z,46.90
2019-01-25T23:56:59.859Z,44.35
2019-01-25T23:59:28.870Z,52.33
